sensor_id;sensor_type;location;lat;lon;timestamp;P1;durP1;ratioP1;P2;durP2;ratioP2
44816;SDS011;30529;53.570;9.964;2023-02-28T00:01:26;3.37;;;1.70;;
44816;SDS011;30529;53.570;9.964;2023-02-28T00:03:52;4.73;;;1.60;;
44816;SDS011;30529;53.570;9.964;2023-02-28T00:06:18;2.63;;;1.20;;
44816;SDS011;30529;53.570;9.964;2023-02-28T00:08:45;2.17;;;1.20;;
44816;SDS011;30529;53.570;9.964;2023-02-28T00:11:12;4.67;;;1.43;;
44816;SDS011;30529;53.570;9.964;2023-02-28T00:13:43;4.00;;;1.70;;
44816;SDS011;30529;53.570;9.964;2023-02-28T00:16:17;5.37;;;1.83;;
44816;SDS011;30529;53.570;9.964;2023-02-28T00:18:45;4.13;;;1.47;;
44816;SDS011;30529;53.570;9.964;2023-02-28T00:21:13;4.20;;;2.00;;
44816;SDS011;30529;53.570;9.964;2023-02-28T00:23:39;4.10;;;1.47;;
44816;SDS011;30529;53.570;9.964;2023-02-28T00:26:06;4.37;;;1.53;;
44816;SDS011;30529;53.570;9.964;2023-02-28T00:28:32;3.33;;;1.67;;
44816;SDS011;30529;53.570;9.964;2023-02-28T00:30:58;3.47;;;1.83;;
44816;SDS011;30529;53.570;9.964;2023-02-28T00:33:25;4.27;;;1.70;;
44816;SDS011;30529;53.570;9.964;2023-02-28T00:35:52;5.13;;;1.63;;
44816;SDS011;30529;53.570;9.964;2023-02-28T00:38:33;5.47;;;1.70;;
44816;SDS011;30529;53.570;9.964;2023-02-28T00:40:59;2.67;;;1.70;;
44816;SDS011;30529;53.570;9.964;2023-02-28T00:43:30;5.63;;;1.50;;
44816;SDS011;30529;53.570;9.964;2023-02-28T00:46:01;3.00;;;1.43;;
44816;SDS011;30529;53.570;9.964;2023-02-28T00:48:27;7.43;;;2.30;;
44816;SDS011;30529;53.570;9.964;2023-02-28T00:50:53;2.97;;;1.90;;
44816;SDS011;30529;53.570;9.964;2023-02-28T00:53:20;6.17;;;2.03;;
44816;SDS011;30529;53.570;9.964;2023-02-28T00:55:48;4.97;;;1.67;;
44816;SDS011;30529;53.570;9.964;2023-02-28T00:58:14;3.40;;;1.47;;
44816;SDS011;30529;53.570;9.964;2023-02-28T01:00:40;3.73;;;1.50;;
44816;SDS011;30529;53.570;9.964;2023-02-28T01:03:07;4.77;;;1.60;;
44816;SDS011;30529;53.570;9.964;2023-02-28T01:05:32;4.07;;;1.17;;
44816;SDS011;30529;53.570;9.964;2023-02-28T01:08:03;2.57;;;1.40;;
44816;SDS011;30529;53.570;9.964;2023-02-28T01:10:29;4.13;;;1.77;;
44816;SDS011;30529;53.570;9.964;2023-02-28T01:12:56;3.70;;;1.40;;
44816;SDS011;30529;53.570;9.964;2023-02-28T01:15:23;4.50;;;1.67;;
44816;SDS011;30529;53.570;9.964;2023-02-28T01:17:49;4.30;;;1.73;;
44816;SDS011;30529;53.570;9.964;2023-02-28T01:20:15;4.90;;;1.50;;
44816;SDS011;30529;53.570;9.964;2023-02-28T01:22:41;7.33;;;1.50;;
44816;SDS011;30529;53.570;9.964;2023-02-28T01:25:07;5.63;;;1.60;;
44816;SDS011;30529;53.570;9.964;2023-02-28T01:27:33;4.57;;;1.50;;
44816;SDS011;30529;53.570;9.964;2023-02-28T01:29:59;7.93;;;2.00;;
44816;SDS011;30529;53.570;9.964;2023-02-28T01:32:25;1.90;;;1.30;;
44816;SDS011;30529;53.570;9.964;2023-02-28T01:34:51;2.30;;;1.17;;
44816;SDS011;30529;53.570;9.964;2023-02-28T01:37:17;4.33;;;1.83;;
44816;SDS011;30529;53.570;9.964;2023-02-28T01:39:43;3.07;;;1.57;;
44816;SDS011;30529;53.570;9.964;2023-02-28T01:42:09;4.90;;;2.30;;
44816;SDS011;30529;53.570;9.964;2023-02-28T01:47:25;13.47;;;5.03;;
44816;SDS011;30529;53.570;9.964;2023-02-28T01:49:58;16.47;;;5.77;;
44816;SDS011;30529;53.570;9.964;2023-02-28T01:52:26;20.20;;;6.70;;
44816;SDS011;30529;53.570;9.964;2023-02-28T01:54:54;16.77;;;8.00;;
44816;SDS011;30529;53.570;9.964;2023-02-28T01:57:24;24.57;;;9.23;;
44816;SDS011;30529;53.570;9.964;2023-02-28T01:59:55;21.67;;;9.63;;
44816;SDS011;30529;53.570;9.964;2023-02-28T02:02:24;18.07;;;7.90;;
44816;SDS011;30529;53.570;9.964;2023-02-28T02:04:53;17.23;;;7.47;;
44816;SDS011;30529;53.570;9.964;2023-02-28T02:07:24;14.47;;;5.70;;
44816;SDS011;30529;53.570;9.964;2023-02-28T02:15:09;79.63;;;32.43;;
44816;SDS011;30529;53.570;9.964;2023-02-28T02:17:42;99.80;;;43.27;;
44816;SDS011;30529;53.570;9.964;2023-02-28T02:29:28;81.73;;;34.20;;
44816;SDS011;30529;53.570;9.964;2023-02-28T02:34:37;93.17;;;39.67;;
44816;SDS011;30529;53.570;9.964;2023-02-28T02:39:59;92.70;;;39.93;;
44816;SDS011;30529;53.570;9.964;2023-02-28T02:42:28;89.73;;;39.13;;
44816;SDS011;30529;53.570;9.964;2023-02-28T02:45:12;88.47;;;38.00;;
44816;SDS011;30529;53.570;9.964;2023-02-28T02:47:48;76.70;;;33.27;;
44816;SDS011;30529;53.570;9.964;2023-02-28T02:50:17;64.83;;;30.17;;
44816;SDS011;30529;53.570;9.964;2023-02-28T02:52:51;69.70;;;29.80;;
44816;SDS011;30529;53.570;9.964;2023-02-28T02:55:21;71.93;;;29.57;;
44816;SDS011;30529;53.570;9.964;2023-02-28T02:57:50;64.50;;;28.80;;
44816;SDS011;30529;53.570;9.964;2023-02-28T03:00:21;62.37;;;27.67;;
44816;SDS011;30529;53.570;9.964;2023-02-28T03:02:52;70.20;;;28.67;;
44816;SDS011;30529;53.570;9.964;2023-02-28T03:05:21;82.67;;;33.13;;
44816;SDS011;30529;53.570;9.964;2023-02-28T03:07:51;82.60;;;33.80;;
44816;SDS011;30529;53.570;9.964;2023-02-28T03:10:29;81.07;;;34.00;;
44816;SDS011;30529;53.570;9.964;2023-02-28T03:13:17;82.37;;;34.53;;
44816;SDS011;30529;53.570;9.964;2023-02-28T03:24:49;69.60;;;31.67;;
44816;SDS011;30529;53.570;9.964;2023-02-28T03:27:30;74.70;;;30.23;;
44816;SDS011;30529;53.570;9.964;2023-02-28T03:30:23;62.20;;;24.20;;
44816;SDS011;30529;53.570;9.964;2023-02-28T03:32:57;57.43;;;23.83;;
44816;SDS011;30529;53.570;9.964;2023-02-28T03:35:37;51.10;;;21.93;;
44816;SDS011;30529;53.570;9.964;2023-02-28T03:38:11;54.07;;;21.37;;
44816;SDS011;30529;53.570;9.964;2023-02-28T03:40:49;52.13;;;21.83;;
44816;SDS011;30529;53.570;9.964;2023-02-28T03:43:24;55.17;;;21.40;;
44816;SDS011;30529;53.570;9.964;2023-02-28T03:45:58;50.80;;;21.03;;
44816;SDS011;30529;53.570;9.964;2023-02-28T03:48:30;48.10;;;19.33;;
44816;SDS011;30529;53.570;9.964;2023-02-28T03:51:00;44.83;;;18.50;;
44816;SDS011;30529;53.570;9.964;2023-02-28T03:53:32;43.07;;;16.77;;
44816;SDS011;30529;53.570;9.964;2023-02-28T03:56:07;41.47;;;17.13;;
44816;SDS011;30529;53.570;9.964;2023-02-28T03:58:55;40.83;;;16.13;;
44816;SDS011;30529;53.570;9.964;2023-02-28T04:01:35;34.83;;;15.73;;
44816;SDS011;30529;53.570;9.964;2023-02-28T04:04:07;38.07;;;14.43;;
44816;SDS011;30529;53.570;9.964;2023-02-28T04:06:34;39.80;;;15.17;;
44816;SDS011;30529;53.570;9.964;2023-02-28T04:09:01;35.10;;;12.53;;
44816;SDS011;30529;53.570;9.964;2023-02-28T04:14:06;28.40;;;11.93;;
44816;SDS011;30529;53.570;9.964;2023-02-28T04:16:34;32.27;;;13.60;;
44816;SDS011;30529;53.570;9.964;2023-02-28T04:19:05;26.27;;;11.07;;
44816;SDS011;30529;53.570;9.964;2023-02-28T04:21:33;30.93;;;11.33;;
44816;SDS011;30529;53.570;9.964;2023-02-28T04:24:00;20.13;;;9.07;;
44816;SDS011;30529;53.570;9.964;2023-02-28T04:26:30;23.27;;;9.37;;
44816;SDS011;30529;53.570;9.964;2023-02-28T04:28:57;17.83;;;7.97;;
44816;SDS011;30529;53.570;9.964;2023-02-28T04:31:23;18.23;;;7.47;;
44816;SDS011;30529;53.570;9.964;2023-02-28T04:33:50;16.07;;;7.10;;
44816;SDS011;30529;53.570;9.964;2023-02-28T04:36:16;16.70;;;7.70;;
44816;SDS011;30529;53.570;9.964;2023-02-28T04:38:43;18.63;;;7.57;;
44816;SDS011;30529;53.570;9.964;2023-02-28T04:41:10;15.33;;;6.77;;
44816;SDS011;30529;53.570;9.964;2023-02-28T04:43:40;17.13;;;7.00;;
44816;SDS011;30529;53.570;9.964;2023-02-28T04:46:06;16.00;;;7.40;;
44816;SDS011;30529;53.570;9.964;2023-02-28T04:48:34;15.70;;;6.20;;
44816;SDS011;30529;53.570;9.964;2023-02-28T04:51:02;15.03;;;5.73;;
44816;SDS011;30529;53.570;9.964;2023-02-28T04:53:28;14.93;;;5.07;;
44816;SDS011;30529;53.570;9.964;2023-02-28T04:55:55;10.97;;;5.43;;
44816;SDS011;30529;53.570;9.964;2023-02-28T04:58:21;12.90;;;4.73;;
44816;SDS011;30529;53.570;9.964;2023-02-28T05:00:49;9.00;;;4.80;;
44816;SDS011;30529;53.570;9.964;2023-02-28T05:03:15;11.37;;;5.13;;
44816;SDS011;30529;53.570;9.964;2023-02-28T05:05:41;12.80;;;4.93;;
44816;SDS011;30529;53.570;9.964;2023-02-28T05:08:07;8.53;;;4.50;;
44816;SDS011;30529;53.570;9.964;2023-02-28T05:10:35;10.07;;;4.17;;
44816;SDS011;30529;53.570;9.964;2023-02-28T05:13:01;8.27;;;3.80;;
44816;SDS011;30529;53.570;9.964;2023-02-28T05:15:27;9.80;;;4.20;;
44816;SDS011;30529;53.570;9.964;2023-02-28T05:17:53;12.27;;;4.20;;
44816;SDS011;30529;53.570;9.964;2023-02-28T05:20:19;10.93;;;4.63;;
44816;SDS011;30529;53.570;9.964;2023-02-28T05:22:46;9.97;;;4.27;;
44816;SDS011;30529;53.570;9.964;2023-02-28T05:25:17;14.17;;;5.03;;
44816;SDS011;30529;53.570;9.964;2023-02-28T05:27:44;12.53;;;4.97;;
44816;SDS011;30529;53.570;9.964;2023-02-28T05:30:11;13.30;;;4.83;;
44816;SDS011;30529;53.570;9.964;2023-02-28T05:32:37;10.30;;;4.83;;
44816;SDS011;30529;53.570;9.964;2023-02-28T05:35:08;12.67;;;5.90;;
44816;SDS011;30529;53.570;9.964;2023-02-28T05:37:36;11.60;;;4.67;;
44816;SDS011;30529;53.570;9.964;2023-02-28T05:40:03;12.93;;;4.93;;
44816;SDS011;30529;53.570;9.964;2023-02-28T05:42:36;17.87;;;6.37;;
44816;SDS011;30529;53.570;9.964;2023-02-28T05:45:05;14.37;;;4.97;;
44816;SDS011;30529;53.570;9.964;2023-02-28T05:47:32;10.10;;;4.80;;
44816;SDS011;30529;53.570;9.964;2023-02-28T05:49:58;12.73;;;5.67;;
44816;SDS011;30529;53.570;9.964;2023-02-28T05:52:25;13.07;;;5.43;;
44816;SDS011;30529;53.570;9.964;2023-02-28T05:54:51;12.33;;;5.53;;
44816;SDS011;30529;53.570;9.964;2023-02-28T05:57:17;17.57;;;5.23;;
44816;SDS011;30529;53.570;9.964;2023-02-28T05:59:43;11.77;;;5.23;;
44816;SDS011;30529;53.570;9.964;2023-02-28T06:02:13;22.60;;;5.73;;
44816;SDS011;30529;53.570;9.964;2023-02-28T06:04:40;9.53;;;5.00;;
44816;SDS011;30529;53.570;9.964;2023-02-28T06:07:07;13.03;;;5.33;;
44816;SDS011;30529;53.570;9.964;2023-02-28T06:09:34;13.10;;;5.57;;
44816;SDS011;30529;53.570;9.964;2023-02-28T06:12:04;13.73;;;5.80;;
44816;SDS011;30529;53.570;9.964;2023-02-28T06:14:33;12.60;;;5.43;;
44816;SDS011;30529;53.570;9.964;2023-02-28T06:17:02;14.30;;;5.17;;
44816;SDS011;30529;53.570;9.964;2023-02-28T06:19:29;17.43;;;6.70;;
44816;SDS011;30529;53.570;9.964;2023-02-28T06:21:58;17.70;;;5.93;;
44816;SDS011;30529;53.570;9.964;2023-02-28T06:24:25;16.40;;;5.90;;
44816;SDS011;30529;53.570;9.964;2023-02-28T06:26:53;11.53;;;5.33;;
44816;SDS011;30529;53.570;9.964;2023-02-28T06:29:19;13.20;;;5.20;;
44816;SDS011;30529;53.570;9.964;2023-02-28T06:31:45;13.40;;;5.53;;
44816;SDS011;30529;53.570;9.964;2023-02-28T06:34:14;12.80;;;6.47;;
44816;SDS011;30529;53.570;9.964;2023-02-28T06:36:41;15.13;;;5.63;;
44816;SDS011;30529;53.570;9.964;2023-02-28T06:39:08;12.40;;;6.57;;
44816;SDS011;30529;53.570;9.964;2023-02-28T06:41:35;12.80;;;5.73;;
44816;SDS011;30529;53.570;9.964;2023-02-28T06:44:05;12.57;;;5.60;;
44816;SDS011;30529;53.570;9.964;2023-02-28T06:46:38;14.93;;;5.83;;
44816;SDS011;30529;53.570;9.964;2023-02-28T06:49:08;17.20;;;6.17;;
44816;SDS011;30529;53.570;9.964;2023-02-28T06:51:35;18.63;;;5.93;;
44816;SDS011;30529;53.570;9.964;2023-02-28T06:54:03;14.03;;;5.87;;
44816;SDS011;30529;53.570;9.964;2023-02-28T06:56:29;14.77;;;6.10;;
44816;SDS011;30529;53.570;9.964;2023-02-28T06:58:55;19.60;;;7.27;;
44816;SDS011;30529;53.570;9.964;2023-02-28T07:01:22;20.50;;;7.30;;
44816;SDS011;30529;53.570;9.964;2023-02-28T07:03:49;20.17;;;7.33;;
44816;SDS011;30529;53.570;9.964;2023-02-28T07:06:21;19.83;;;7.63;;
44816;SDS011;30529;53.570;9.964;2023-02-28T07:08:48;20.03;;;8.93;;
44816;SDS011;30529;53.570;9.964;2023-02-28T07:11:15;18.97;;;8.03;;
44816;SDS011;30529;53.570;9.964;2023-02-28T07:13:41;22.13;;;8.03;;
44816;SDS011;30529;53.570;9.964;2023-02-28T07:16:09;21.30;;;7.13;;
44816;SDS011;30529;53.570;9.964;2023-02-28T07:18:36;17.07;;;6.63;;
44816;SDS011;30529;53.570;9.964;2023-02-28T07:21:03;16.10;;;6.70;;
44816;SDS011;30529;53.570;9.964;2023-02-28T07:23:30;15.73;;;5.53;;
44816;SDS011;30529;53.570;9.964;2023-02-28T07:25:56;16.57;;;6.13;;
44816;SDS011;30529;53.570;9.964;2023-02-28T07:28:23;17.93;;;5.80;;
44816;SDS011;30529;53.570;9.964;2023-02-28T07:30:49;13.63;;;5.47;;
44816;SDS011;30529;53.570;9.964;2023-02-28T07:33:15;16.53;;;6.17;;
44816;SDS011;30529;53.570;9.964;2023-02-28T07:35:41;11.97;;;4.63;;
44816;SDS011;30529;53.570;9.964;2023-02-28T07:38:07;9.33;;;4.53;;
44816;SDS011;30529;53.570;9.964;2023-02-28T07:40:33;12.33;;;4.90;;
44816;SDS011;30529;53.570;9.964;2023-02-28T07:43:00;11.00;;;4.53;;
44816;SDS011;30529;53.570;9.964;2023-02-28T07:45:26;15.43;;;6.30;;
44816;SDS011;30529;53.570;9.964;2023-02-28T07:47:54;15.03;;;4.80;;
44816;SDS011;30529;53.570;9.964;2023-02-28T07:50:20;18.23;;;5.87;;
44816;SDS011;30529;53.570;9.964;2023-02-28T07:52:46;8.47;;;4.73;;
44816;SDS011;30529;53.570;9.964;2023-02-28T07:55:12;9.50;;;5.30;;
44816;SDS011;30529;53.570;9.964;2023-02-28T07:57:40;10.97;;;4.60;;
44816;SDS011;30529;53.570;9.964;2023-02-28T08:00:07;9.47;;;5.17;;
44816;SDS011;30529;53.570;9.964;2023-02-28T08:02:37;10.30;;;4.43;;
44816;SDS011;30529;53.570;9.964;2023-02-28T08:05:04;14.17;;;4.80;;
44816;SDS011;30529;53.570;9.964;2023-02-28T08:07:31;9.40;;;4.47;;
44816;SDS011;30529;53.570;9.964;2023-02-28T08:09:58;8.73;;;4.40;;
44816;SDS011;30529;53.570;9.964;2023-02-28T08:12:25;16.33;;;5.10;;
44816;SDS011;30529;53.570;9.964;2023-02-28T08:14:51;10.17;;;4.33;;
44816;SDS011;30529;53.570;9.964;2023-02-28T08:17:17;7.33;;;3.17;;
44816;SDS011;30529;53.570;9.964;2023-02-28T08:19:46;7.47;;;3.40;;
44816;SDS011;30529;53.570;9.964;2023-02-28T08:22:12;11.27;;;3.10;;
44816;SDS011;30529;53.570;9.964;2023-02-28T08:24:40;5.60;;;2.80;;
44816;SDS011;30529;53.570;9.964;2023-02-28T08:27:08;4.40;;;2.83;;
44816;SDS011;30529;53.570;9.964;2023-02-28T08:29:36;7.80;;;3.00;;
44816;SDS011;30529;53.570;9.964;2023-02-28T08:32:03;5.23;;;2.57;;
44816;SDS011;30529;53.570;9.964;2023-02-28T08:34:29;9.43;;;2.80;;
44816;SDS011;30529;53.570;9.964;2023-02-28T08:36:56;7.83;;;3.43;;
44816;SDS011;30529;53.570;9.964;2023-02-28T08:39:21;7.03;;;2.80;;
44816;SDS011;30529;53.570;9.964;2023-02-28T08:41:48;5.17;;;2.17;;
44816;SDS011;30529;53.570;9.964;2023-02-28T08:44:13;6.80;;;2.07;;
44816;SDS011;30529;53.570;9.964;2023-02-28T08:46:39;4.63;;;1.90;;
44816;SDS011;30529;53.570;9.964;2023-02-28T08:49:05;4.23;;;1.90;;
44816;SDS011;30529;53.570;9.964;2023-02-28T08:51:32;3.27;;;1.67;;
44816;SDS011;30529;53.570;9.964;2023-02-28T08:54:00;4.57;;;1.70;;
44816;SDS011;30529;53.570;9.964;2023-02-28T08:56:27;9.57;;;2.13;;
44816;SDS011;30529;53.570;9.964;2023-02-28T08:58:54;4.77;;;2.13;;
44816;SDS011;30529;53.570;9.964;2023-02-28T09:01:22;3.67;;;1.90;;
44816;SDS011;30529;53.570;9.964;2023-02-28T09:03:53;4.97;;;2.23;;
44816;SDS011;30529;53.570;9.964;2023-02-28T09:06:20;7.13;;;1.90;;
44816;SDS011;30529;53.570;9.964;2023-02-28T09:08:47;3.67;;;2.00;;
44816;SDS011;30529;53.570;9.964;2023-02-28T09:11:13;5.13;;;1.60;;
44816;SDS011;30529;53.570;9.964;2023-02-28T09:13:40;8.30;;;2.00;;
44816;SDS011;30529;53.570;9.964;2023-02-28T09:16:07;3.63;;;1.90;;
44816;SDS011;30529;53.570;9.964;2023-02-28T09:18:36;8.50;;;1.90;;
44816;SDS011;30529;53.570;9.964;2023-02-28T09:21:03;5.50;;;1.60;;
44816;SDS011;30529;53.570;9.964;2023-02-28T09:23:30;4.80;;;1.33;;
44816;SDS011;30529;53.570;9.964;2023-02-28T09:25:56;2.23;;;1.10;;
44816;SDS011;30529;53.570;9.964;2023-02-28T09:28:22;6.10;;;1.77;;
44816;SDS011;30529;53.570;9.964;2023-02-28T09:30:49;5.43;;;1.70;;
44816;SDS011;30529;53.570;9.964;2023-02-28T09:33:17;5.37;;;2.00;;
44816;SDS011;30529;53.570;9.964;2023-02-28T09:35:46;3.13;;;1.53;;
44816;SDS011;30529;53.570;9.964;2023-02-28T09:38:13;3.87;;;1.63;;
44816;SDS011;30529;53.570;9.964;2023-02-28T09:40:45;8.03;;;3.50;;
44816;SDS011;30529;53.570;9.964;2023-02-28T09:43:15;2.00;;;1.00;;
44816;SDS011;30529;53.570;9.964;2023-02-28T09:45:44;3.73;;;1.07;;
44816;SDS011;30529;53.570;9.964;2023-02-28T09:48:21;3.37;;;1.00;;
44816;SDS011;30529;53.570;9.964;2023-02-28T09:51:04;2.10;;;1.00;;
44816;SDS011;30529;53.570;9.964;2023-02-28T09:53:37;3.53;;;1.50;;
44816;SDS011;30529;53.570;9.964;2023-02-28T09:56:19;3.53;;;1.20;;
44816;SDS011;30529;53.570;9.964;2023-02-28T09:58:57;1.70;;;1.00;;
44816;SDS011;30529;53.570;9.964;2023-02-28T10:04:00;2.77;;;1.17;;
44816;SDS011;30529;53.570;9.964;2023-02-28T10:06:33;2.63;;;1.60;;
44816;SDS011;30529;53.570;9.964;2023-02-28T10:09:08;3.33;;;1.10;;
44816;SDS011;30529;53.570;9.964;2023-02-28T10:11:39;3.80;;;1.13;;
44816;SDS011;30529;53.570;9.964;2023-02-28T10:14:18;3.17;;;1.27;;
44816;SDS011;30529;53.570;9.964;2023-02-28T10:24:51;3.90;;;1.17;;
44816;SDS011;30529;53.570;9.964;2023-02-28T10:27:31;4.47;;;1.40;;
44816;SDS011;30529;53.570;9.964;2023-02-28T10:29:59;4.63;;;1.23;;
44816;SDS011;30529;53.570;9.964;2023-02-28T10:32:27;2.63;;;1.20;;
44816;SDS011;30529;53.570;9.964;2023-02-28T10:34:57;6.13;;;1.63;;
44816;SDS011;30529;53.570;9.964;2023-02-28T10:37:32;4.07;;;1.87;;
44816;SDS011;30529;53.570;9.964;2023-02-28T10:40:03;3.03;;;1.67;;
44816;SDS011;30529;53.570;9.964;2023-02-28T10:42:54;2.30;;;1.10;;
44816;SDS011;30529;53.570;9.964;2023-02-28T10:45:21;2.03;;;1.30;;
44816;SDS011;30529;53.570;9.964;2023-02-28T10:50:51;5.77;;;1.40;;
44816;SDS011;30529;53.570;9.964;2023-02-28T10:58:29;3.20;;;1.30;;
44816;SDS011;30529;53.570;9.964;2023-02-28T11:01:15;5.43;;;1.67;;
44816;SDS011;30529;53.570;9.964;2023-02-28T11:03:43;4.37;;;1.70;;
44816;SDS011;30529;53.570;9.964;2023-02-28T11:06:15;2.93;;;1.60;;
44816;SDS011;30529;53.570;9.964;2023-02-28T11:11:22;2.80;;;1.20;;
44816;SDS011;30529;53.570;9.964;2023-02-28T11:13:52;3.03;;;1.30;;
44816;SDS011;30529;53.570;9.964;2023-02-28T11:16:20;2.77;;;1.40;;
44816;SDS011;30529;53.570;9.964;2023-02-28T11:18:50;1.73;;;1.07;;
44816;SDS011;30529;53.570;9.964;2023-02-28T11:21:23;5.03;;;1.40;;
44816;SDS011;30529;53.570;9.964;2023-02-28T11:24:04;2.57;;;1.20;;
44816;SDS011;30529;53.570;9.964;2023-02-28T11:26:48;6.70;;;2.20;;
44816;SDS011;30529;53.570;9.964;2023-02-28T11:29:25;7.27;;;2.50;;
44816;SDS011;30529;53.570;9.964;2023-02-28T11:34:36;8.17;;;2.30;;
44816;SDS011;30529;53.570;9.964;2023-02-28T11:37:05;6.37;;;2.10;;
44816;SDS011;30529;53.570;9.964;2023-02-28T11:39:36;4.40;;;1.70;;
44816;SDS011;30529;53.570;9.964;2023-02-28T11:42:09;6.60;;;1.67;;
44816;SDS011;30529;53.570;9.964;2023-02-28T11:55:59;5.83;;;1.83;;
44816;SDS011;30529;53.570;9.964;2023-02-28T12:03:58;7.77;;;1.60;;
44816;SDS011;30529;53.570;9.964;2023-02-28T12:09:43;9.00;;;2.37;;
44816;SDS011;30529;53.570;9.964;2023-02-28T12:17:32;3.67;;;1.97;;
44816;SDS011;30529;53.570;9.964;2023-02-28T12:28:20;4.57;;;2.00;;
44816;SDS011;30529;53.570;9.964;2023-02-28T12:30:50;4.87;;;1.60;;
44816;SDS011;30529;53.570;9.964;2023-02-28T12:33:22;4.60;;;2.07;;
44816;SDS011;30529;53.570;9.964;2023-02-28T12:35:57;4.83;;;2.30;;
44816;SDS011;30529;53.570;9.964;2023-02-28T12:41:00;4.77;;;1.43;;
44816;SDS011;30529;53.570;9.964;2023-02-28T12:43:35;3.57;;;1.70;;
44816;SDS011;30529;53.570;9.964;2023-02-28T12:51:13;8.40;;;1.97;;
44816;SDS011;30529;53.570;9.964;2023-02-28T12:56:22;4.67;;;1.77;;
44816;SDS011;30529;53.570;9.964;2023-02-28T12:59:10;7.10;;;1.57;;
44816;SDS011;30529;53.570;9.964;2023-02-28T13:09:53;5.30;;;1.90;;
44816;SDS011;30529;53.570;9.964;2023-02-28T13:12:22;3.57;;;1.90;;
44816;SDS011;30529;53.570;9.964;2023-02-28T13:14:49;6.90;;;1.70;;
44816;SDS011;30529;53.570;9.964;2023-02-28T13:17:21;3.23;;;1.70;;
44816;SDS011;30529;53.570;9.964;2023-02-28T13:22:35;5.93;;;2.00;;
44816;SDS011;30529;53.570;9.964;2023-02-28T13:27:51;4.23;;;1.70;;
44816;SDS011;30529;53.570;9.964;2023-02-28T13:38:37;6.60;;;2.33;;
44816;SDS011;30529;53.570;9.964;2023-02-28T13:44:02;4.20;;;2.07;;
44816;SDS011;30529;53.570;9.964;2023-02-28T13:51:55;4.50;;;2.00;;
44816;SDS011;30529;53.570;9.964;2023-02-28T14:03:22;7.67;;;2.50;;
44816;SDS011;30529;53.570;9.964;2023-02-28T14:09:00;6.23;;;2.20;;
44816;SDS011;30529;53.570;9.964;2023-02-28T14:11:42;3.37;;;2.37;;
44816;SDS011;30529;53.570;9.964;2023-02-28T14:14:09;2.40;;;1.60;;
44816;SDS011;30529;53.570;9.964;2023-02-28T14:17:01;5.60;;;2.00;;
44816;SDS011;30529;53.570;9.964;2023-02-28T14:19:30;5.53;;;2.90;;
44816;SDS011;30529;53.570;9.964;2023-02-28T14:24:42;4.37;;;2.23;;
44816;SDS011;30529;53.570;9.964;2023-02-28T14:38:05;8.57;;;1.93;;
44816;SDS011;30529;53.570;9.964;2023-02-28T14:40:39;6.53;;;1.83;;
44816;SDS011;30529;53.570;9.964;2023-02-28T14:43:16;6.23;;;1.63;;
44816;SDS011;30529;53.570;9.964;2023-02-28T14:45:49;6.73;;;2.03;;
44816;SDS011;30529;53.570;9.964;2023-02-28T14:48:16;2.47;;;1.83;;
44816;SDS011;30529;53.570;9.964;2023-02-28T14:50:48;2.83;;;1.73;;
44816;SDS011;30529;53.570;9.964;2023-02-28T14:53:20;5.87;;;2.03;;
44816;SDS011;30529;53.570;9.964;2023-02-28T14:55:48;6.47;;;1.80;;
44816;SDS011;30529;53.570;9.964;2023-02-28T14:58:22;5.37;;;2.07;;
44816;SDS011;30529;53.570;9.964;2023-02-28T15:00:54;7.00;;;2.10;;
44816;SDS011;30529;53.570;9.964;2023-02-28T15:03:32;6.77;;;2.30;;
44816;SDS011;30529;53.570;9.964;2023-02-28T15:06:00;7.43;;;2.77;;
44816;SDS011;30529;53.570;9.964;2023-02-28T15:08:29;7.73;;;2.13;;
44816;SDS011;30529;53.570;9.964;2023-02-28T15:11:04;6.83;;;2.17;;
44816;SDS011;30529;53.570;9.964;2023-02-28T15:16:55;5.97;;;2.23;;
44816;SDS011;30529;53.570;9.964;2023-02-28T15:19:01;3.53;;;2.30;;
44816;SDS011;30529;53.570;9.964;2023-02-28T15:21:35;3.10;;;1.70;;
44816;SDS011;30529;53.570;9.964;2023-02-28T15:24:05;6.90;;;1.93;;
44816;SDS011;30529;53.570;9.964;2023-02-28T15:26:38;5.00;;;1.90;;
44816;SDS011;30529;53.570;9.964;2023-02-28T15:29:19;4.13;;;2.00;;
44816;SDS011;30529;53.570;9.964;2023-02-28T15:31:52;7.73;;;2.30;;
44816;SDS011;30529;53.570;9.964;2023-02-28T15:34:33;5.00;;;2.10;;
44816;SDS011;30529;53.570;9.964;2023-02-28T15:37:01;16.57;;;2.57;;
44816;SDS011;30529;53.570;9.964;2023-02-28T15:39:31;6.57;;;2.30;;
44816;SDS011;30529;53.570;9.964;2023-02-28T15:42:09;6.57;;;2.33;;
44816;SDS011;30529;53.570;9.964;2023-02-28T15:44:44;5.03;;;2.10;;
44816;SDS011;30529;53.570;9.964;2023-02-28T15:47:15;4.13;;;2.10;;
44816;SDS011;30529;53.570;9.964;2023-02-28T15:49:51;6.70;;;2.17;;
44816;SDS011;30529;53.570;9.964;2023-02-28T15:55:22;3.70;;;2.17;;
44816;SDS011;30529;53.570;9.964;2023-02-28T15:57:56;4.60;;;2.07;;
44816;SDS011;30529;53.570;9.964;2023-02-28T16:00:28;4.50;;;2.23;;
44816;SDS011;30529;53.570;9.964;2023-02-28T16:02:56;3.33;;;1.93;;
44816;SDS011;30529;53.570;9.964;2023-02-28T16:05:26;5.97;;;1.90;;
44816;SDS011;30529;53.570;9.964;2023-02-28T16:07:56;9.40;;;2.13;;
44816;SDS011;30529;53.570;9.964;2023-02-28T16:10:24;6.17;;;2.20;;
44816;SDS011;30529;53.570;9.964;2023-02-28T16:12:56;6.83;;;2.00;;
44816;SDS011;30529;53.570;9.964;2023-02-28T16:15:24;4.70;;;2.30;;
44816;SDS011;30529;53.570;9.964;2023-02-28T16:17:52;8.17;;;2.10;;
44816;SDS011;30529;53.570;9.964;2023-02-28T16:20:24;7.03;;;2.23;;
44816;SDS011;30529;53.570;9.964;2023-02-28T16:22:51;6.53;;;1.90;;
44816;SDS011;30529;53.570;9.964;2023-02-28T16:25:20;7.40;;;2.17;;
44816;SDS011;30529;53.570;9.964;2023-02-28T16:27:49;5.13;;;2.50;;
44816;SDS011;30529;53.570;9.964;2023-02-28T16:30:24;5.23;;;2.20;;
44816;SDS011;30529;53.570;9.964;2023-02-28T16:32:54;5.47;;;2.40;;
44816;SDS011;30529;53.570;9.964;2023-02-28T16:35:21;4.33;;;2.73;;
44816;SDS011;30529;53.570;9.964;2023-02-28T16:37:48;8.03;;;3.00;;
44816;SDS011;30529;53.570;9.964;2023-02-28T16:40:18;7.43;;;3.43;;
44816;SDS011;30529;53.570;9.964;2023-02-28T16:42:48;5.50;;;2.80;;
44816;SDS011;30529;53.570;9.964;2023-02-28T16:45:17;4.03;;;2.70;;
44816;SDS011;30529;53.570;9.964;2023-02-28T16:47:45;6.30;;;2.83;;
44816;SDS011;30529;53.570;9.964;2023-02-28T16:50:12;6.50;;;3.13;;
44816;SDS011;30529;53.570;9.964;2023-02-28T16:52:43;7.23;;;3.23;;
44816;SDS011;30529;53.570;9.964;2023-02-28T16:55:09;6.93;;;3.00;;
44816;SDS011;30529;53.570;9.964;2023-02-28T16:57:36;6.77;;;3.30;;
44816;SDS011;30529;53.570;9.964;2023-02-28T17:00:03;8.17;;;3.50;;
44816;SDS011;30529;53.570;9.964;2023-02-28T17:02:30;6.40;;;3.10;;
44816;SDS011;30529;53.570;9.964;2023-02-28T17:04:56;6.40;;;2.80;;
44816;SDS011;30529;53.570;9.964;2023-02-28T17:07:22;4.80;;;2.27;;
44816;SDS011;30529;53.570;9.964;2023-02-28T17:09:48;4.53;;;2.37;;
44816;SDS011;30529;53.570;9.964;2023-02-28T17:12:14;6.90;;;2.77;;
44816;SDS011;30529;53.570;9.964;2023-02-28T17:14:40;6.87;;;1.97;;
44816;SDS011;30529;53.570;9.964;2023-02-28T17:17:07;3.77;;;1.80;;
44816;SDS011;30529;53.570;9.964;2023-02-28T17:19:35;5.57;;;2.57;;
44816;SDS011;30529;53.570;9.964;2023-02-28T17:22:02;3.97;;;2.17;;
44816;SDS011;30529;53.570;9.964;2023-02-28T17:24:31;3.87;;;2.37;;
44816;SDS011;30529;53.570;9.964;2023-02-28T17:26:57;6.63;;;2.67;;
44816;SDS011;30529;53.570;9.964;2023-02-28T17:29:23;5.63;;;2.70;;
44816;SDS011;30529;53.570;9.964;2023-02-28T17:31:49;6.83;;;2.07;;
44816;SDS011;30529;53.570;9.964;2023-02-28T17:34:15;4.83;;;2.50;;
44816;SDS011;30529;53.570;9.964;2023-02-28T17:36:44;6.80;;;3.20;;
44816;SDS011;30529;53.570;9.964;2023-02-28T17:39:11;7.07;;;3.63;;